sensor_id;sensor_type;location;lat;lon;timestamp;P1;durP1;ratioP1;P2;durP2;ratioP2
7057;SDS011;3570;43.080;25.628;2022-07-23T00:00:14;12.00;;;4.87;;
7057;SDS011;3570;43.080;25.628;2022-07-23T00:02:59;8.10;;;4.27;;
7057;SDS011;3570;43.080;25.628;2022-07-23T00:05:43;15.73;;;4.53;;
7057;SDS011;3570;43.080;25.628;2022-07-23T00:08:27;9.40;;;4.63;;
7057;SDS011;3570;43.080;25.628;2022-07-23T00:11:11;9.00;;;4.23;;
7057;SDS011;3570;43.080;25.628;2022-07-23T00:13:55;7.13;;;4.33;;
7057;SDS011;3570;43.080;25.628;2022-07-23T00:16:41;7.80;;;4.77;;
7057;SDS011;3570;43.080;25.628;2022-07-23T00:19:25;7.67;;;4.20;;
7057;SDS011;3570;43.080;25.628;2022-07-23T00:22:09;6.17;;;4.10;;
7057;SDS011;3570;43.080;25.628;2022-07-23T00:24:53;5.40;;;4.20;;
7057;SDS011;3570;43.080;25.628;2022-07-23T00:27:37;7.40;;;4.60;;
7057;SDS011;3570;43.080;25.628;2022-07-23T00:30:21;8.17;;;4.03;;
7057;SDS011;3570;43.080;25.628;2022-07-23T00:33:06;6.33;;;3.90;;
7057;SDS011;3570;43.080;25.628;2022-07-23T00:35:51;8.57;;;4.40;;
7057;SDS011;3570;43.080;25.628;2022-07-23T00:38:35;9.07;;;4.10;;
7057;SDS011;3570;43.080;25.628;2022-07-23T00:41:19;5.03;;;4.00;;
7057;SDS011;3570;43.080;25.628;2022-07-23T00:47:04;5.47;;;3.87;;
7057;SDS011;3570;43.080;25.628;2022-07-23T00:49:49;9.90;;;4.33;;
7057;SDS011;3570;43.080;25.628;2022-07-23T00:52:33;9.57;;;4.60;;
7057;SDS011;3570;43.080;25.628;2022-07-23T00:55:18;9.37;;;4.23;;
7057;SDS011;3570;43.080;25.628;2022-07-23T00:58:02;8.70;;;3.70;;
7057;SDS011;3570;43.080;25.628;2022-07-23T01:00:48;4.07;;;3.33;;
7057;SDS011;3570;43.080;25.628;2022-07-23T01:03:32;6.27;;;3.70;;
7057;SDS011;3570;43.080;25.628;2022-07-23T01:06:16;6.40;;;3.60;;
7057;SDS011;3570;43.080;25.628;2022-07-23T01:08:59;9.30;;;4.30;;
7057;SDS011;3570;43.080;25.628;2022-07-23T01:11:43;10.73;;;3.90;;
7057;SDS011;3570;43.080;25.628;2022-07-23T01:14:27;6.57;;;3.50;;
7057;SDS011;3570;43.080;25.628;2022-07-23T01:17:11;5.80;;;3.90;;
7057;SDS011;3570;43.080;25.628;2022-07-23T01:19:55;5.20;;;3.73;;
7057;SDS011;3570;43.080;25.628;2022-07-23T01:22:39;7.73;;;4.20;;
7057;SDS011;3570;43.080;25.628;2022-07-23T01:25:24;10.57;;;4.60;;
7057;SDS011;3570;43.080;25.628;2022-07-23T01:28:11;10.50;;;5.10;;
7057;SDS011;3570;43.080;25.628;2022-07-23T01:30:55;11.33;;;5.37;;
7057;SDS011;3570;43.080;25.628;2022-07-23T01:33:39;6.23;;;4.20;;
7057;SDS011;3570;43.080;25.628;2022-07-23T01:36:23;8.77;;;4.73;;
7057;SDS011;3570;43.080;25.628;2022-07-23T01:39:07;13.03;;;5.73;;
7057;SDS011;3570;43.080;25.628;2022-07-23T01:41:51;9.07;;;4.50;;
7057;SDS011;3570;43.080;25.628;2022-07-23T01:44:35;10.03;;;4.73;;
7057;SDS011;3570;43.080;25.628;2022-07-23T01:47:19;7.73;;;4.80;;
7057;SDS011;3570;43.080;25.628;2022-07-23T01:50:03;10.27;;;6.50;;
7057;SDS011;3570;43.080;25.628;2022-07-23T01:52:47;10.23;;;6.23;;
7057;SDS011;3570;43.080;25.628;2022-07-23T01:55:31;15.90;;;6.83;;
7057;SDS011;3570;43.080;25.628;2022-07-23T01:58:15;12.40;;;6.10;;
7057;SDS011;3570;43.080;25.628;2022-07-23T02:00:59;14.30;;;6.60;;
7057;SDS011;3570;43.080;25.628;2022-07-23T02:03:44;9.27;;;6.10;;
7057;SDS011;3570;43.080;25.628;2022-07-23T02:06:28;8.87;;;5.13;;
7057;SDS011;3570;43.080;25.628;2022-07-23T02:09:12;9.20;;;5.47;;
7057;SDS011;3570;43.080;25.628;2022-07-23T02:11:56;8.93;;;5.20;;
7057;SDS011;3570;43.080;25.628;2022-07-23T02:14:41;8.73;;;5.10;;
7057;SDS011;3570;43.080;25.628;2022-07-23T02:17:25;9.00;;;4.80;;
7057;SDS011;3570;43.080;25.628;2022-07-23T02:20:09;8.63;;;4.67;;
7057;SDS011;3570;43.080;25.628;2022-07-23T02:22:54;12.20;;;4.93;;
7057;SDS011;3570;43.080;25.628;2022-07-23T02:25:38;9.73;;;5.40;;
7057;SDS011;3570;43.080;25.628;2022-07-23T02:28:22;8.97;;;4.90;;
7057;SDS011;3570;43.080;25.628;2022-07-23T02:31:05;9.83;;;4.80;;
7057;SDS011;3570;43.080;25.628;2022-07-23T02:33:50;10.90;;;4.90;;
7057;SDS011;3570;43.080;25.628;2022-07-23T02:36:34;11.90;;;4.90;;
7057;SDS011;3570;43.080;25.628;2022-07-23T02:39:18;9.87;;;4.73;;
7057;SDS011;3570;43.080;25.628;2022-07-23T02:42:02;8.53;;;4.13;;
7057;SDS011;3570;43.080;25.628;2022-07-23T02:44:47;7.00;;;3.90;;
7057;SDS011;3570;43.080;25.628;2022-07-23T02:47:30;16.90;;;4.30;;
7057;SDS011;3570;43.080;25.628;2022-07-23T02:50:15;6.67;;;4.03;;
7057;SDS011;3570;43.080;25.628;2022-07-23T02:52:59;5.93;;;4.20;;
7057;SDS011;3570;43.080;25.628;2022-07-23T02:55:44;10.40;;;4.57;;
7057;SDS011;3570;43.080;25.628;2022-07-23T02:58:28;6.50;;;4.23;;
7057;SDS011;3570;43.080;25.628;2022-07-23T03:01:11;8.93;;;4.37;;
7057;SDS011;3570;43.080;25.628;2022-07-23T03:03:56;9.77;;;4.40;;
7057;SDS011;3570;43.080;25.628;2022-07-23T03:06:39;11.10;;;4.70;;
7057;SDS011;3570;43.080;25.628;2022-07-23T03:09:23;7.27;;;4.20;;
7057;SDS011;3570;43.080;25.628;2022-07-23T03:12:07;8.70;;;4.50;;
7057;SDS011;3570;43.080;25.628;2022-07-23T03:14:52;10.63;;;5.50;;
7057;SDS011;3570;43.080;25.628;2022-07-23T03:17:35;11.03;;;4.80;;
7057;SDS011;3570;43.080;25.628;2022-07-23T03:20:19;10.63;;;5.20;;
7057;SDS011;3570;43.080;25.628;2022-07-23T03:23:03;9.87;;;4.63;;
7057;SDS011;3570;43.080;25.628;2022-07-23T03:25:47;9.33;;;4.97;;
7057;SDS011;3570;43.080;25.628;2022-07-23T03:28:34;8.03;;;4.40;;
7057;SDS011;3570;43.080;25.628;2022-07-23T03:31:18;15.17;;;4.70;;
7057;SDS011;3570;43.080;25.628;2022-07-23T03:34:02;10.03;;;4.90;;
7057;SDS011;3570;43.080;25.628;2022-07-23T03:36:46;8.03;;;4.33;;
7057;SDS011;3570;43.080;25.628;2022-07-23T03:39:30;13.57;;;4.43;;
7057;SDS011;3570;43.080;25.628;2022-07-23T03:42:14;8.20;;;4.90;;
7057;SDS011;3570;43.080;25.628;2022-07-23T03:44:58;11.90;;;5.00;;
7057;SDS011;3570;43.080;25.628;2022-07-23T03:47:42;6.77;;;4.40;;
7057;SDS011;3570;43.080;25.628;2022-07-23T03:50:28;10.10;;;4.43;;
7057;SDS011;3570;43.080;25.628;2022-07-23T03:53:12;8.90;;;5.00;;
7057;SDS011;3570;43.080;25.628;2022-07-23T03:55:56;7.73;;;5.30;;
7057;SDS011;3570;43.080;25.628;2022-07-23T03:58:40;7.23;;;4.70;;
7057;SDS011;3570;43.080;25.628;2022-07-23T04:01:24;8.47;;;4.87;;
7057;SDS011;3570;43.080;25.628;2022-07-23T04:04:08;8.03;;;4.90;;
7057;SDS011;3570;43.080;25.628;2022-07-23T04:06:52;7.63;;;5.13;;
7057;SDS011;3570;43.080;25.628;2022-07-23T04:09:36;11.07;;;4.83;;
7057;SDS011;3570;43.080;25.628;2022-07-23T04:12:20;13.93;;;6.23;;
7057;SDS011;3570;43.080;25.628;2022-07-23T04:15:04;12.53;;;7.90;;
7057;SDS011;3570;43.080;25.628;2022-07-23T04:17:50;19.33;;;8.30;;
7057;SDS011;3570;43.080;25.628;2022-07-23T04:20:34;18.50;;;8.40;;
7057;SDS011;3570;43.080;25.628;2022-07-23T04:23:18;12.87;;;8.13;;
7057;SDS011;3570;43.080;25.628;2022-07-23T04:26:03;22.47;;;9.73;;
7057;SDS011;3570;43.080;25.628;2022-07-23T04:28:47;20.63;;;7.87;;
7057;SDS011;3570;43.080;25.628;2022-07-23T04:31:30;17.40;;;8.00;;
7057;SDS011;3570;43.080;25.628;2022-07-23T04:34:14;20.07;;;9.37;;
7057;SDS011;3570;43.080;25.628;2022-07-23T04:36:59;16.70;;;9.37;;
7057;SDS011;3570;43.080;25.628;2022-07-23T04:39:43;26.07;;;9.40;;
7057;SDS011;3570;43.080;25.628;2022-07-23T04:42:28;11.43;;;7.70;;
7057;SDS011;3570;43.080;25.628;2022-07-23T04:45:12;19.53;;;7.67;;
7057;SDS011;3570;43.080;25.628;2022-07-23T04:47:56;15.07;;;7.87;;
7057;SDS011;3570;43.080;25.628;2022-07-23T04:50:40;12.50;;;7.57;;
7057;SDS011;3570;43.080;25.628;2022-07-23T04:53:26;28.93;;;10.60;;
7057;SDS011;3570;43.080;25.628;2022-07-23T04:56:10;15.77;;;10.73;;
7057;SDS011;3570;43.080;25.628;2022-07-23T04:58:54;13.57;;;10.03;;
7057;SDS011;3570;43.080;25.628;2022-07-23T05:01:38;15.70;;;10.23;;
7057;SDS011;3570;43.080;25.628;2022-07-23T05:04:21;17.63;;;10.57;;
7057;SDS011;3570;43.080;25.628;2022-07-23T05:07:05;15.43;;;8.37;;
7057;SDS011;3570;43.080;25.628;2022-07-23T05:09:49;14.43;;;8.30;;
7057;SDS011;3570;43.080;25.628;2022-07-23T05:12:34;16.37;;;6.50;;
7057;SDS011;3570;43.080;25.628;2022-07-23T05:15:18;14.13;;;6.87;;
7057;SDS011;3570;43.080;25.628;2022-07-23T05:18:02;12.10;;;6.33;;
7057;SDS011;3570;43.080;25.628;2022-07-23T05:20:46;10.90;;;5.77;;
7057;SDS011;3570;43.080;25.628;2022-07-23T05:23:33;11.53;;;7.03;;
7057;SDS011;3570;43.080;25.628;2022-07-23T05:26:17;14.50;;;6.20;;
7057;SDS011;3570;43.080;25.628;2022-07-23T05:29:01;11.60;;;6.23;;
7057;SDS011;3570;43.080;25.628;2022-07-23T05:31:45;12.30;;;6.43;;
7057;SDS011;3570;43.080;25.628;2022-07-23T05:34:30;13.20;;;6.50;;
7057;SDS011;3570;43.080;25.628;2022-07-23T05:37:14;15.73;;;6.93;;
7057;SDS011;3570;43.080;25.628;2022-07-23T05:40:02;15.97;;;6.63;;
7057;SDS011;3570;43.080;25.628;2022-07-23T05:42:47;9.97;;;6.20;;
7057;SDS011;3570;43.080;25.628;2022-07-23T05:45:31;18.07;;;6.30;;
7057;SDS011;3570;43.080;25.628;2022-07-23T05:48:15;18.77;;;6.73;;
7057;SDS011;3570;43.080;25.628;2022-07-23T05:51:00;12.90;;;6.37;;
7057;SDS011;3570;43.080;25.628;2022-07-23T05:53:44;10.03;;;6.23;;
7057;SDS011;3570;43.080;25.628;2022-07-23T05:56:28;14.57;;;5.87;;
7057;SDS011;3570;43.080;25.628;2022-07-23T05:59:12;15.23;;;6.00;;
7057;SDS011;3570;43.080;25.628;2022-07-23T06:01:58;15.87;;;6.33;;
7057;SDS011;3570;43.080;25.628;2022-07-23T06:04:42;12.97;;;6.23;;
7057;SDS011;3570;43.080;25.628;2022-07-23T06:07:26;12.00;;;6.77;;
7057;SDS011;3570;43.080;25.628;2022-07-23T06:10:10;15.13;;;6.03;;
7057;SDS011;3570;43.080;25.628;2022-07-23T06:12:54;10.17;;;6.57;;
7057;SDS011;3570;43.080;25.628;2022-07-23T06:15:38;12.67;;;6.63;;
7057;SDS011;3570;43.080;25.628;2022-07-23T06:18:22;7.80;;;6.00;;
7057;SDS011;3570;43.080;25.628;2022-07-23T06:21:06;14.37;;;6.47;;
7057;SDS011;3570;43.080;25.628;2022-07-23T06:23:50;15.80;;;7.80;;
7057;SDS011;3570;43.080;25.628;2022-07-23T06:26:34;17.63;;;10.70;;
7057;SDS011;3570;43.080;25.628;2022-07-23T06:29:18;11.43;;;9.67;;
7057;SDS011;3570;43.080;25.628;2022-07-23T06:32:02;16.60;;;11.60;;
7057;SDS011;3570;43.080;25.628;2022-07-23T06:34:46;17.50;;;12.23;;
7057;SDS011;3570;43.080;25.628;2022-07-23T06:37:30;15.03;;;10.43;;
7057;SDS011;3570;43.080;25.628;2022-07-23T06:40:14;15.03;;;9.77;;
7057;SDS011;3570;43.080;25.628;2022-07-23T06:42:58;18.73;;;10.80;;
7057;SDS011;3570;43.080;25.628;2022-07-23T06:45:42;20.47;;;14.57;;
7057;SDS011;3570;43.080;25.628;2022-07-23T06:48:26;18.40;;;12.37;;
7057;SDS011;3570;43.080;25.628;2022-07-23T06:51:12;21.07;;;14.77;;
7057;SDS011;3570;43.080;25.628;2022-07-23T06:53:56;13.20;;;10.10;;
7057;SDS011;3570;43.080;25.628;2022-07-23T06:56:40;12.50;;;9.30;;
7057;SDS011;3570;43.080;25.628;2022-07-23T06:59:24;22.10;;;11.07;;
7057;SDS011;3570;43.080;25.628;2022-07-23T07:02:08;20.57;;;11.43;;
7057;SDS011;3570;43.080;25.628;2022-07-23T07:04:53;15.40;;;8.97;;
7057;SDS011;3570;43.080;25.628;2022-07-23T07:07:37;18.67;;;10.27;;
7057;SDS011;3570;43.080;25.628;2022-07-23T07:10:21;20.70;;;10.23;;
7057;SDS011;3570;43.080;25.628;2022-07-23T07:13:05;15.40;;;9.85;;
7057;SDS011;3570;43.080;25.628;2022-07-23T07:15:50;14.80;;;9.90;;
7057;SDS011;3570;43.080;25.628;2022-07-23T07:18:34;18.25;;;10.82;;
7057;SDS011;3570;43.080;25.628;2022-07-23T07:21:19;20.08;;;9.70;;
7057;SDS011;3570;43.080;25.628;2022-07-23T07:24:03;18.23;;;10.30;;
7057;SDS011;3570;43.080;25.628;2022-07-23T07:26:47;16.23;;;9.20;;
7057;SDS011;3570;43.080;25.628;2022-07-23T07:29:31;15.35;;;9.52;;
7057;SDS011;3570;43.080;25.628;2022-07-23T07:32:15;22.10;;;12.32;;
7057;SDS011;3570;43.080;25.628;2022-07-23T07:34:59;16.58;;;11.88;;
7057;SDS011;3570;43.080;25.628;2022-07-23T07:37:43;13.75;;;11.48;;
7057;SDS011;3570;43.080;25.628;2022-07-23T07:40:27;15.68;;;11.73;;
7057;SDS011;3570;43.080;25.628;2022-07-23T07:43:11;18.08;;;14.35;;
7057;SDS011;3570;43.080;25.628;2022-07-23T07:45:55;25.38;;;15.73;;
7057;SDS011;3570;43.080;25.628;2022-07-23T07:48:39;18.20;;;12.80;;
7057;SDS011;3570;43.080;25.628;2022-07-23T07:51:23;20.70;;;12.45;;
7057;SDS011;3570;43.080;25.628;2022-07-23T07:54:07;18.08;;;11.63;;
7057;SDS011;3570;43.080;25.628;2022-07-23T07:56:51;15.45;;;10.30;;
7057;SDS011;3570;43.080;25.628;2022-07-23T07:59:35;20.05;;;10.95;;
7057;SDS011;3570;43.080;25.628;2022-07-23T08:02:19;22.50;;;11.93;;
7057;SDS011;3570;43.080;25.628;2022-07-23T08:05:03;19.17;;;11.07;;
7057;SDS011;3570;43.080;25.628;2022-07-23T08:07:48;14.98;;;10.07;;
7057;SDS011;3570;43.080;25.628;2022-07-23T08:10:33;16.40;;;9.52;;
7057;SDS011;3570;43.080;25.628;2022-07-23T08:13:17;13.93;;;9.27;;
7057;SDS011;3570;43.080;25.628;2022-07-23T08:16:01;16.73;;;8.95;;
7057;SDS011;3570;43.080;25.628;2022-07-23T08:18:45;14.02;;;8.30;;
7057;SDS011;3570;43.080;25.628;2022-07-23T08:21:30;11.90;;;7.93;;
7057;SDS011;3570;43.080;25.628;2022-07-23T08:24:14;20.55;;;8.65;;
7057;SDS011;3570;43.080;25.628;2022-07-23T08:26:58;10.38;;;7.93;;
7057;SDS011;3570;43.080;25.628;2022-07-23T08:29:42;22.05;;;8.18;;
7057;SDS011;3570;43.080;25.628;2022-07-23T08:32:26;13.90;;;7.82;;
7057;SDS011;3570;43.080;25.628;2022-07-23T08:35:10;15.40;;;7.28;;
7057;SDS011;3570;43.080;25.628;2022-07-23T08:37:54;9.93;;;7.15;;
7057;SDS011;3570;43.080;25.628;2022-07-23T08:40:40;12.88;;;5.65;;
7057;SDS011;3570;43.080;25.628;2022-07-23T08:43:26;9.57;;;5.03;;
7057;SDS011;3570;43.080;25.628;2022-07-23T08:46:14;8.55;;;4.40;;
7057;SDS011;3570;43.080;25.628;2022-07-23T08:49:02;10.00;;;4.85;;
7057;SDS011;3570;43.080;25.628;2022-07-23T08:51:47;8.82;;;5.05;;
7057;SDS011;3570;43.080;25.628;2022-07-23T08:54:31;15.05;;;4.75;;
7057;SDS011;3570;43.080;25.628;2022-07-23T08:57:17;5.25;;;4.13;;
7057;SDS011;3570;43.080;25.628;2022-07-23T09:00:02;5.97;;;3.70;;
7057;SDS011;3570;43.080;25.628;2022-07-23T09:02:47;8.30;;;4.43;;
7057;SDS011;3570;43.080;25.628;2022-07-23T09:05:32;7.10;;;4.88;;
7057;SDS011;3570;43.080;25.628;2022-07-23T09:08:20;7.03;;;4.30;;
7057;SDS011;3570;43.080;25.628;2022-07-23T09:11:10;7.72;;;4.53;;
7057;SDS011;3570;43.080;25.628;2022-07-23T09:13:56;11.38;;;4.05;;
7057;SDS011;3570;43.080;25.628;2022-07-23T09:16:41;10.63;;;4.65;;
7057;SDS011;3570;43.080;25.628;2022-07-23T09:19:27;10.30;;;4.70;;
7057;SDS011;3570;43.080;25.628;2022-07-23T09:25:11;12.93;;;4.70;;
7057;SDS011;3570;43.080;25.628;2022-07-23T09:28:04;12.45;;;4.57;;
7057;SDS011;3570;43.080;25.628;2022-07-23T09:30:51;8.10;;;5.03;;
7057;SDS011;3570;43.080;25.628;2022-07-23T09:33:36;5.35;;;4.70;;
7057;SDS011;3570;43.080;25.628;2022-07-23T09:36:29;8.13;;;4.65;;
7057;SDS011;3570;43.080;25.628;2022-07-23T09:39:15;9.18;;;4.40;;
7057;SDS011;3570;43.080;25.628;2022-07-23T09:42:13;11.90;;;4.07;;
7057;SDS011;3570;43.080;25.628;2022-07-23T09:45:07;6.72;;;4.32;;
7057;SDS011;3570;43.080;25.628;2022-07-23T09:48:12;9.15;;;4.35;;
7057;SDS011;3570;43.080;25.628;2022-07-23T09:51:01;6.00;;;4.00;;
7057;SDS011;3570;43.080;25.628;2022-07-23T09:53:48;9.48;;;4.10;;
7057;SDS011;3570;43.080;25.628;2022-07-23T09:56:36;12.05;;;4.28;;
7057;SDS011;3570;43.080;25.628;2022-07-23T09:59:24;8.88;;;4.50;;
7057;SDS011;3570;43.080;25.628;2022-07-23T10:02:12;8.30;;;4.38;;
7057;SDS011;3570;43.080;25.628;2022-07-23T10:05:01;7.70;;;4.43;;
7057;SDS011;3570;43.080;25.628;2022-07-23T10:07:47;11.68;;;4.70;;
7057;SDS011;3570;43.080;25.628;2022-07-23T10:10:32;10.57;;;4.55;;
7057;SDS011;3570;43.080;25.628;2022-07-23T10:13:16;9.77;;;4.63;;
7057;SDS011;3570;43.080;25.628;2022-07-23T10:16:07;12.57;;;5.55;;
7057;SDS011;3570;43.080;25.628;2022-07-23T10:18:52;10.52;;;4.63;;
7057;SDS011;3570;43.080;25.628;2022-07-23T10:21:42;12.18;;;4.78;;
7057;SDS011;3570;43.080;25.628;2022-07-23T10:33:30;7.28;;;4.38;;
7057;SDS011;3570;43.080;25.628;2022-07-23T10:36:40;8.85;;;4.60;;
7057;SDS011;3570;43.080;25.628;2022-07-23T10:39:32;7.95;;;4.40;;
7057;SDS011;3570;43.080;25.628;2022-07-23T10:42:17;7.50;;;4.32;;
7057;SDS011;3570;43.080;25.628;2022-07-23T10:45:02;13.82;;;4.88;;
7057;SDS011;3570;43.080;25.628;2022-07-23T10:48:14;13.95;;;4.60;;
7057;SDS011;3570;43.080;25.628;2022-07-23T10:51:13;10.77;;;5.38;;
7057;SDS011;3570;43.080;25.628;2022-07-23T10:54:00;9.48;;;4.47;;
7057;SDS011;3570;43.080;25.628;2022-07-23T10:57:04;8.75;;;4.53;;
7057;SDS011;3570;43.080;25.628;2022-07-23T11:02:47;10.30;;;4.72;;
7057;SDS011;3570;43.080;25.628;2022-07-23T11:05:40;11.00;;;5.40;;
7057;SDS011;3570;43.080;25.628;2022-07-23T11:08:28;10.20;;;4.30;;
7057;SDS011;3570;43.080;25.628;2022-07-23T11:11:12;7.80;;;4.63;;
7057;SDS011;3570;43.080;25.628;2022-07-23T11:13:56;11.98;;;4.93;;
7057;SDS011;3570;43.080;25.628;2022-07-23T11:16:46;8.38;;;4.65;;
7057;SDS011;3570;43.080;25.628;2022-07-23T11:19:31;6.40;;;4.00;;
7057;SDS011;3570;43.080;25.628;2022-07-23T11:22:57;9.55;;;4.25;;
7057;SDS011;3570;43.080;25.628;2022-07-23T11:25:42;8.77;;;4.90;;
7057;SDS011;3570;43.080;25.628;2022-07-23T11:28:28;7.20;;;4.22;;
7057;SDS011;3570;43.080;25.628;2022-07-23T11:31:18;9.95;;;4.55;;
7057;SDS011;3570;43.080;25.628;2022-07-23T11:40:14;10.95;;;4.40;;
7057;SDS011;3570;43.080;25.628;2022-07-23T11:45:50;9.23;;;4.53;;
7057;SDS011;3570;43.080;25.628;2022-07-23T11:48:36;6.57;;;4.10;;
7057;SDS011;3570;43.080;25.628;2022-07-23T11:51:27;7.95;;;4.63;;
7057;SDS011;3570;43.080;25.628;2022-07-23T11:54:11;10.70;;;4.25;;
7057;SDS011;3570;43.080;25.628;2022-07-23T11:56:55;9.80;;;4.75;;
7057;SDS011;3570;43.080;25.628;2022-07-23T11:59:43;7.55;;;4.30;;
7057;SDS011;3570;43.080;25.628;2022-07-23T12:02:30;7.60;;;4.00;;
7057;SDS011;3570;43.080;25.628;2022-07-23T12:05:21;8.55;;;4.10;;
7057;SDS011;3570;43.080;25.628;2022-07-23T12:08:08;8.50;;;4.40;;
7057;SDS011;3570;43.080;25.628;2022-07-23T12:10:53;14.95;;;4.97;;
7057;SDS011;3570;43.080;25.628;2022-07-23T12:13:37;6.60;;;4.38;;
7057;SDS011;3570;43.080;25.628;2022-07-23T12:16:21;16.42;;;4.80;;
7057;SDS011;3570;43.080;25.628;2022-07-23T12:19:05;13.52;;;4.88;;
7057;SDS011;3570;43.080;25.628;2022-07-23T12:21:50;9.98;;;4.47;;
7057;SDS011;3570;43.080;25.628;2022-07-23T12:27:38;6.80;;;4.68;;
7057;SDS011;3570;43.080;25.628;2022-07-23T12:30:23;9.32;;;4.95;;
7057;SDS011;3570;43.080;25.628;2022-07-23T12:33:10;7.15;;;4.30;;
7057;SDS011;3570;43.080;25.628;2022-07-23T12:35:56;12.05;;;4.93;;
7057;SDS011;3570;43.080;25.628;2022-07-23T12:38:46;9.27;;;4.60;;
7057;SDS011;3570;43.080;25.628;2022-07-23T12:41:50;8.65;;;4.65;;
7057;SDS011;3570;43.080;25.628;2022-07-23T12:44:36;10.52;;;4.13;;
7057;SDS011;3570;43.080;25.628;2022-07-23T12:47:20;18.80;;;4.53;;
7057;SDS011;3570;43.080;25.628;2022-07-23T12:50:04;7.40;;;4.22;;
7057;SDS011;3570;43.080;25.628;2022-07-23T12:52:48;8.93;;;4.55;;
7057;SDS011;3570;43.080;25.628;2022-07-23T12:55:32;11.80;;;4.38;;
7057;SDS011;3570;43.080;25.628;2022-07-23T12:58:18;9.55;;;4.57;;
7057;SDS011;3570;43.080;25.628;2022-07-23T13:01:04;9.57;;;4.75;;
7057;SDS011;3570;43.080;25.628;2022-07-23T13:09:31;9.80;;;4.68;;
7057;SDS011;3570;43.080;25.628;2022-07-23T13:12:16;10.95;;;4.82;;
7057;SDS011;3570;43.080;25.628;2022-07-23T13:15:00;8.95;;;5.00;;
7057;SDS011;3570;43.080;25.628;2022-07-23T13:17:44;7.35;;;4.30;;
7057;SDS011;3570;43.080;25.628;2022-07-23T13:20:28;13.63;;;4.38;;
7057;SDS011;3570;43.080;25.628;2022-07-23T13:23:15;12.73;;;4.82;;
7057;SDS011;3570;43.080;25.628;2022-07-23T13:25:59;10.43;;;4.78;;
7057;SDS011;3570;43.080;25.628;2022-07-23T13:28:43;12.48;;;4.65;;
7057;SDS011;3570;43.080;25.628;2022-07-23T13:31:28;9.48;;;4.68;;
7057;SDS011;3570;43.080;25.628;2022-07-23T13:34:11;9.02;;;4.90;;
7057;SDS011;3570;43.080;25.628;2022-07-23T13:36:55;8.57;;;4.72;;
7057;SDS011;3570;43.080;25.628;2022-07-23T13:39:39;9.52;;;4.57;;
7057;SDS011;3570;43.080;25.628;2022-07-23T13:42:23;11.60;;;4.78;;
7057;SDS011;3570;43.080;25.628;2022-07-23T13:45:07;10.52;;;4.40;;
7057;SDS011;3570;43.080;25.628;2022-07-23T13:47:52;15.88;;;5.00;;
7057;SDS011;3570;43.080;25.628;2022-07-23T13:50:37;6.93;;;4.10;;
7057;SDS011;3570;43.080;25.628;2022-07-23T13:53:22;10.65;;;4.55;;
7057;SDS011;3570;43.080;25.628;2022-07-23T13:56:07;11.65;;;4.78;;
7057;SDS011;3570;43.080;25.628;2022-07-23T13:58:51;7.65;;;4.30;;
7057;SDS011;3570;43.080;25.628;2022-07-23T14:01:35;11.60;;;4.70;;
7057;SDS011;3570;43.080;25.628;2022-07-23T14:04:20;7.32;;;4.30;;
7057;SDS011;3570;43.080;25.628;2022-07-23T14:07:04;9.80;;;4.57;;
7057;SDS011;3570;43.080;25.628;2022-07-23T14:09:48;12.27;;;4.28;;
7057;SDS011;3570;43.080;25.628;2022-07-23T14:12:32;8.80;;;4.60;;
7057;SDS011;3570;43.080;25.628;2022-07-23T14:15:17;12.43;;;4.80;;
7057;SDS011;3570;43.080;25.628;2022-07-23T14:18:01;15.82;;;5.07;;
7057;SDS011;3570;43.080;25.628;2022-07-23T14:20:45;11.70;;;5.30;;
7057;SDS011;3570;43.080;25.628;2022-07-23T14:23:29;11.75;;;4.40;;
7057;SDS011;3570;43.080;25.628;2022-07-23T14:26:13;11.50;;;4.78;;
7057;SDS011;3570;43.080;25.628;2022-07-23T14:28:56;8.00;;;4.63;;
7057;SDS011;3570;43.080;25.628;2022-07-23T14:31:40;7.93;;;4.35;;
7057;SDS011;3570;43.080;25.628;2022-07-23T14:34:24;9.13;;;4.15;;
7057;SDS011;3570;43.080;25.628;2022-07-23T14:37:09;15.07;;;5.07;;
7057;SDS011;3570;43.080;25.628;2022-07-23T14:39:55;11.50;;;4.57;;
7057;SDS011;3570;43.080;25.628;2022-07-23T14:42:39;12.18;;;4.82;;
7057;SDS011;3570;43.080;25.628;2022-07-23T14:45:23;15.20;;;5.13;;
7057;SDS011;3570;43.080;25.628;2022-07-23T14:48:07;6.78;;;4.35;;
7057;SDS011;3570;43.080;25.628;2022-07-23T14:50:51;10.73;;;4.78;;
7057;SDS011;3570;43.080;25.628;2022-07-23T14:53:36;9.77;;;4.38;;
7057;SDS011;3570;43.080;25.628;2022-07-23T14:56:20;12.43;;;4.95;;
7057;SDS011;3570;43.080;25.628;2022-07-23T14:59:04;11.38;;;4.68;;
7057;SDS011;3570;43.080;25.628;2022-07-23T15:01:49;10.05;;;4.65;;
7057;SDS011;3570;43.080;25.628;2022-07-23T15:04:33;6.65;;;4.05;;
7057;SDS011;3570;43.080;25.628;2022-07-23T15:07:17;9.38;;;4.30;;
7057;SDS011;3570;43.080;25.628;2022-07-23T15:10:01;6.95;;;4.25;;
7057;SDS011;3570;43.080;25.628;2022-07-23T15:12:46;14.80;;;4.85;;
7057;SDS011;3570;43.080;25.628;2022-07-23T15:15:30;12.50;;;5.63;;
7057;SDS011;3570;43.080;25.628;2022-07-23T15:18:14;12.23;;;4.57;;
7057;SDS011;3570;43.080;25.628;2022-07-23T15:20:59;13.13;;;4.80;;
7057;SDS011;3570;43.080;25.628;2022-07-23T15:23:44;9.02;;;4.50;;
7057;SDS011;3570;43.080;25.628;2022-07-23T15:26:29;9.25;;;4.57;;
7057;SDS011;3570;43.080;25.628;2022-07-23T15:29:13;7.25;;;4.45;;
7057;SDS011;3570;43.080;25.628;2022-07-23T15:31:57;11.75;;;4.03;;
7057;SDS011;3570;43.080;25.628;2022-07-23T15:34:42;17.55;;;4.90;;
7057;SDS011;3570;43.080;25.628;2022-07-23T15:37:25;8.98;;;5.10;;
7057;SDS011;3570;43.080;25.628;2022-07-23T15:40:09;10.57;;;4.72;;
7057;SDS011;3570;43.080;25.628;2022-07-23T15:42:54;9.75;;;5.13;;
7057;SDS011;3570;43.080;25.628;2022-07-23T15:45:39;11.38;;;4.45;;
7057;SDS011;3570;43.080;25.628;2022-07-23T15:48:24;9.50;;;4.40;;
7057;SDS011;3570;43.080;25.628;2022-07-23T15:51:08;12.90;;;4.70;;
7057;SDS011;3570;43.080;25.628;2022-07-23T15:53:52;10.05;;;4.85;;
7057;SDS011;3570;43.080;25.628;2022-07-23T15:56:36;11.25;;;4.75;;
7057;SDS011;3570;43.080;25.628;2022-07-23T15:59:20;8.65;;;4.70;;
7057;SDS011;3570;43.080;25.628;2022-07-23T16:02:05;9.40;;;4.50;;
7057;SDS011;3570;43.080;25.628;2022-07-23T16:04:49;10.70;;;4.15;;
7057;SDS011;3570;43.080;25.628;2022-07-23T16:07:34;12.18;;;4.63;;
7057;SDS011;3570;43.080;25.628;2022-07-23T16:10:20;11.88;;;5.20;;
7057;SDS011;3570;43.080;25.628;2022-07-23T16:13:04;15.20;;;4.78;;
7057;SDS011;3570;43.080;25.628;2022-07-23T16:15:49;10.73;;;4.60;;
7057;SDS011;3570;43.080;25.628;2022-07-23T16:18:33;8.40;;;4.65;;
7057;SDS011;3570;43.080;25.628;2022-07-23T16:21:17;11.35;;;5.03;;
7057;SDS011;3570;43.080;25.628;2022-07-23T16:24:01;12.32;;;5.53;;
7057;SDS011;3570;43.080;25.628;2022-07-23T16:26:46;10.98;;;5.28;;
7057;SDS011;3570;43.080;25.628;2022-07-23T16:29:30;12.73;;;5.00;;
7057;SDS011;3570;43.080;25.628;2022-07-23T16:32:14;8.20;;;4.70;;
7057;SDS011;3570;43.080;25.628;2022-07-23T16:34:58;10.70;;;4.82;;
7057;SDS011;3570;43.080;25.628;2022-07-23T16:37:42;10.05;;;5.03;;
7057;SDS011;3570;43.080;25.628;2022-07-23T16:40:26;13.98;;;5.55;;
7057;SDS011;3570;43.080;25.628;2022-07-23T16:43:11;13.40;;;6.45;;
7057;SDS011;3570;43.080;25.628;2022-07-23T16:45:55;8.13;;;6.55;;
7057;SDS011;3570;43.080;25.628;2022-07-23T16:48:39;17.30;;;7.45;;
7057;SDS011;3570;43.080;25.628;2022-07-23T16:51:23;15.98;;;7.00;;
7057;SDS011;3570;43.080;25.628;2022-07-23T16:54:07;11.02;;;5.97;;
7057;SDS011;3570;43.080;25.628;2022-07-23T16:56:52;15.50;;;6.28;;
7057;SDS011;3570;43.080;25.628;2022-07-23T16:59:37;15.52;;;6.07;;
7057;SDS011;3570;43.080;25.628;2022-07-23T17:02:21;8.32;;;5.82;;
7057;SDS011;3570;43.080;25.628;2022-07-23T17:05:06;13.60;;;5.93;;
7057;SDS011;3570;43.080;25.628;2022-07-23T17:07:51;6.97;;;5.35;;
7057;SDS011;3570;43.080;25.628;2022-07-23T17:10:36;12.40;;;5.38;;
7057;SDS011;3570;43.080;25.628;2022-07-23T17:13:20;14.77;;;6.82;;
7057;SDS011;3570;43.080;25.628;2022-07-23T17:16:04;13.95;;;7.70;;